sensor_id;sensor_type;location;lat;lon;timestamp;pressure;altitude;pressure_sealevel;temperature;humidity
45939;BME280;31650;48.818;9.116;2023-08-06T00:07:59;97318.69;;;13.90;100.00
45939;BME280;31650;48.818;9.116;2023-08-06T00:23:00;97306.47;;;13.27;100.00
45939;BME280;31650;48.818;9.116;2023-08-06T00:38:00;97299.91;;;12.84;100.00
45939;BME280;31650;48.818;9.116;2023-08-06T00:53:00;97287.03;;;12.62;100.00
45939;BME280;31650;48.818;9.116;2023-08-06T01:08:05;97269.75;;;12.34;100.00
45939;BME280;31650;48.818;9.116;2023-08-06T01:23:11;97253.91;;;12.31;100.00
45939;BME280;31650;48.818;9.116;2023-08-06T01:38:11;97255.81;;;12.53;100.00
45939;BME280;31650;48.818;9.116;2023-08-06T01:53:12;97242.56;;;12.40;100.00
45939;BME280;31650;48.818;9.116;2023-08-06T02:08:12;97226.97;;;12.18;100.00
45939;BME280;31650;48.818;9.116;2023-08-06T02:23:12;97199.81;;;12.06;100.00
45939;BME280;31650;48.818;9.116;2023-08-06T02:38:13;97183.16;;;12.03;100.00
45939;BME280;31650;48.818;9.116;2023-08-06T02:53:13;97168.94;;;11.84;100.00
45939;BME280;31650;48.818;9.116;2023-08-06T03:08:14;97154.84;;;11.87;100.00
45939;BME280;31650;48.818;9.116;2023-08-06T03:23:14;97143.41;;;12.24;100.00
45939;BME280;31650;48.818;9.116;2023-08-06T03:38:15;97168.47;;;12.43;100.00
45939;BME280;31650;48.818;9.116;2023-08-06T03:53:15;97166.50;;;12.60;100.00
45939;BME280;31650;48.818;9.116;2023-08-06T04:08:15;97181.97;;;12.76;100.00
45939;BME280;31650;48.818;9.116;2023-08-06T04:23:16;97189.16;;;12.83;100.00
45939;BME280;31650;48.818;9.116;2023-08-06T04:38:16;97171.28;;;12.92;100.00
45939;BME280;31650;48.818;9.116;2023-08-06T04:53:17;97194.84;;;12.59;100.00
45939;BME280;31650;48.818;9.116;2023-08-06T05:08:17;97186.50;;;12.66;100.00
45939;BME280;31650;48.818;9.116;2023-08-06T05:23:18;97192.25;;;12.91;100.00
45939;BME280;31650;48.818;9.116;2023-08-06T05:38:18;97196.25;;;13.82;100.00
45939;BME280;31650;48.818;9.116;2023-08-06T05:53:19;97205.16;;;14.04;100.00
45939;BME280;31650;48.818;9.116;2023-08-06T06:08:19;97198.75;;;13.89;100.00
45939;BME280;31650;48.818;9.116;2023-08-06T06:23:20;97204.56;;;13.65;100.00
45939;BME280;31650;48.818;9.116;2023-08-06T06:38:21;97228.41;;;13.48;100.00
45939;BME280;31650;48.818;9.116;2023-08-06T06:53:22;97224.59;;;13.76;100.00
45939;BME280;31650;48.818;9.116;2023-08-06T07:08:29;97205.22;;;13.77;100.00
45939;BME280;31650;48.818;9.116;2023-08-06T07:23:29;97226.50;;;13.75;100.00
45939;BME280;31650;48.818;9.116;2023-08-06T07:38:30;97243.03;;;13.91;100.00
45939;BME280;31650;48.818;9.116;2023-08-06T07:53:30;97231.97;;;14.07;100.00
45939;BME280;31650;48.818;9.116;2023-08-06T08:08:31;97217.72;;;14.80;100.00
45939;BME280;31650;48.818;9.116;2023-08-06T08:23:31;97154.09;;;16.59;100.00
45939;BME280;31650;48.818;9.116;2023-08-06T08:38:32;97137.78;;;17.03;100.00
45939;BME280;31650;48.818;9.116;2023-08-06T08:53:32;97131.25;;;16.89;100.00
45939;BME280;31650;48.818;9.116;2023-08-06T09:08:40;97191.97;;;15.54;100.00
45939;BME280;31650;48.818;9.116;2023-08-06T09:23:42;97185.47;;;15.91;100.00
45939;BME280;31650;48.818;9.116;2023-08-06T09:38:42;97241.53;;;15.43;100.00
45939;BME280;31650;48.818;9.116;2023-08-06T09:53:43;97236.88;;;15.43;100.00
45939;BME280;31650;48.818;9.116;2023-08-06T10:08:43;97245.38;;;15.52;100.00
45939;BME280;31650;48.818;9.116;2023-08-06T10:23:44;97244.63;;;15.77;100.00
45939;BME280;31650;48.818;9.116;2023-08-06T10:38:53;97224.59;;;16.64;100.00
45939;BME280;31650;48.818;9.116;2023-08-06T10:53:57;97200.75;;;16.54;100.00
45939;BME280;31650;48.818;9.116;2023-08-06T11:08:58;97255.22;;;15.43;100.00
45939;BME280;31650;48.818;9.116;2023-08-06T11:23:58;97270.97;;;15.15;100.00
45939;BME280;31650;48.818;9.116;2023-08-06T11:39:00;97287.16;;;15.22;100.00
45939;BME280;31650;48.818;9.116;2023-08-06T11:54:00;97329.69;;;14.55;100.00
45939;BME280;31650;48.818;9.116;2023-08-06T12:09:02;97358.50;;;13.81;100.00
45939;BME280;31650;48.818;9.116;2023-08-06T12:24:02;97376.97;;;13.96;100.00
45939;BME280;31650;48.818;9.116;2023-08-06T12:39:03;97344.84;;;15.05;100.00
45939;BME280;31650;48.818;9.116;2023-08-06T12:54:03;97306.09;;;16.99;95.62
45939;BME280;31650;48.818;9.116;2023-08-06T13:09:03;97296.44;;;17.17;85.96
45939;BME280;31650;48.818;9.116;2023-08-06T13:24:04;97319.84;;;16.94;82.23
45939;BME280;31650;48.818;9.116;2023-08-06T13:39:04;97337.38;;;16.98;81.50
45939;BME280;31650;48.818;9.116;2023-08-06T13:54:05;97346.44;;;16.32;88.76
45939;BME280;31650;48.818;9.116;2023-08-06T14:09:06;97407.13;;;15.77;94.83
45939;BME280;31650;48.818;9.116;2023-08-06T14:24:07;97406.44;;;15.50;100.00
45939;BME280;31650;48.818;9.116;2023-08-06T14:39:08;97402.16;;;16.53;91.50
45939;BME280;31650;48.818;9.116;2023-08-06T14:54:08;97490.72;;;15.38;100.00
45939;BME280;31650;48.818;9.116;2023-08-06T15:09:08;97515.75;;;15.19;100.00
45939;BME280;31650;48.818;9.116;2023-08-06T15:24:09;97449.53;;;16.28;97.49
45939;BME280;31650;48.818;9.116;2023-08-06T15:39:09;97455.69;;;16.76;85.16
45939;BME280;31650;48.818;9.116;2023-08-06T15:54:09;97461.50;;;16.90;79.25
45939;BME280;31650;48.818;9.116;2023-08-06T16:09:10;97495.56;;;16.15;83.98
45939;BME280;31650;48.818;9.116;2023-08-06T16:24:10;97518.47;;;15.89;87.26
45939;BME280;31650;48.818;9.116;2023-08-06T16:39:10;97560.94;;;14.89;100.00
45939;BME280;31650;48.818;9.116;2023-08-06T16:54:11;97664.69;;;13.17;100.00
45939;BME280;31650;48.818;9.116;2023-08-06T17:09:11;97700.25;;;12.93;100.00
45939;BME280;31650;48.818;9.116;2023-08-06T17:24:12;97692.22;;;13.15;100.00
45939;BME280;31650;48.818;9.116;2023-08-06T17:39:12;97713.91;;;13.34;100.00
45939;BME280;31650;48.818;9.116;2023-08-06T17:54:12;97691.09;;;13.40;100.00
45939;BME280;31650;48.818;9.116;2023-08-06T18:09:13;97699.72;;;13.08;100.00
45939;BME280;31650;48.818;9.116;2023-08-06T18:24:13;97706.78;;;12.92;100.00
45939;BME280;31650;48.818;9.116;2023-08-06T18:39:14;97760.69;;;12.26;100.00
45939;BME280;31650;48.818;9.116;2023-08-06T18:54:14;97760.09;;;12.24;100.00
45939;BME280;31650;48.818;9.116;2023-08-06T19:09:14;97740.41;;;12.46;100.00
45939;BME280;31650;48.818;9.116;2023-08-06T19:24:15;97723.00;;;12.58;100.00
45939;BME280;31650;48.818;9.116;2023-08-06T19:39:15;97720.34;;;12.75;100.00
45939;BME280;31650;48.818;9.116;2023-08-06T19:54:15;97708.72;;;12.80;100.00
45939;BME280;31650;48.818;9.116;2023-08-06T20:09:18;97706.22;;;12.78;100.00
45939;BME280;31650;48.818;9.116;2023-08-06T20:24:18;97729.50;;;12.46;100.00
45939;BME280;31650;48.818;9.116;2023-08-06T20:39:19;97780.13;;;11.76;100.00
45939;BME280;31650;48.818;9.116;2023-08-06T20:54:19;97812.31;;;11.49;100.00
45939;BME280;31650;48.818;9.116;2023-08-06T21:09:19;97829.28;;;11.33;100.00
45939;BME280;31650;48.818;9.116;2023-08-06T21:24:22;97848.50;;;11.19;100.00
45939;BME280;31650;48.818;9.116;2023-08-06T21:39:22;97868.53;;;11.06;100.00
45939;BME280;31650;48.818;9.116;2023-08-06T21:54:22;97881.75;;;11.03;100.00
45939;BME280;31650;48.818;9.116;2023-08-06T22:09:23;97862.69;;;11.03;100.00
45939;BME280;31650;48.818;9.116;2023-08-06T22:24:23;97854.06;;;11.06;100.00
45939;BME280;31650;48.818;9.116;2023-08-06T22:39:23;97863.53;;;11.03;100.00
45939;BME280;31650;48.818;9.116;2023-08-06T22:54:23;97871.53;;;10.98;100.00
45939;BME280;31650;48.818;9.116;2023-08-06T23:09:24;97888.97;;;10.91;100.00
45939;BME280;31650;48.818;9.116;2023-08-06T23:24:25;97896.31;;;10.90;100.00
45939;BME280;31650;48.818;9.116;2023-08-06T23:39:27;97889.75;;;10.98;100.00
45939;BME280;31650;48.818;9.116;2023-08-06T23:54:27;97887.03;;;10.98;100.00
